Time;durP1;ratioP1;P1;durP2;ratioP2;P2;SDS_P1;SDS_P2;PMS_P1;PMS_P2;Temp;Humidity;BMP_temperature;BMP_pressure;BME280_temperature;BME280_humidity;BME280_pressure;Samples;Min_cycle;Max_cycle;Signal;HPM_P1;HPM_P2
2022/11/06 00:01:51;;;;;;;14.47;9.47;;;;;;;1.90;93.90;101058.02;1699406;83;21454;-82
2022/11/06 00:04:18;;;;;;;18.93;9.93;;;;;;;1.93;94.30;101057.61;1699750;83;21074;-81
2022/11/06 00:06:48;;;;;;;15.53;8.80;;;;;;;1.99;94.54;101047.31;1699383;83;20987;-82
2022/11/06 00:09:18;;;;;;;13.90;8.73;;;;;;;2.01;94.55;101048.20;1699795;83;21539;-82
2022/11/06 00:11:49;;;;;;;18.97;9.10;;;;;;;2.00;94.47;101047.77;1699309;83;20998;-82
2022/11/06 00:14:17;;;;;;;19.30;8.75;;;;;;;2.02;94.50;101047.77;1699771;83;21017;-84
2022/11/06 00:16:46;;;;;;;17.83;8.67;;;;;;;2.05;94.79;101047.83;1699356;83;21010;-82
2022/11/06 00:19:15;;;;;;;17.37;8.97;;;;;;;2.11;94.90;101052.17;1699687;83;21035;-84
2022/11/06 00:21:42;;;;;;;14.30;9.67;;;;;;;2.12;94.90;101053.90;1699498;83;21141;-82
2022/11/06 00:24:12;;;;;;;17.93;9.43;;;;;;;2.10;94.54;101054.30;1690781;83;21051;-83
2022/11/06 00:26:39;;;;;;;13.62;9.48;;;;;;;2.11;94.56;101059.94;1699642;83;20979;-82
2022/11/06 00:29:07;;;;;;;17.27;9.37;;;;;;;2.10;94.69;101064.65;1699615;83;21069;-82
2022/11/06 00:31:36;;;;;;;19.57;10.10;;;;;;;2.11;94.47;101065.11;1699789;83;21082;-84
2022/11/06 00:34:09;;;;;;;14.70;9.47;;;;;;;2.09;94.44;101065.08;1699428;83;21971;-82
2022/11/06 00:36:34;;;;;;;13.57;9.47;;;;;;;2.09;94.75;101068.96;1699029;83;21033;-82
2022/11/06 00:39:02;;;;;;;14.07;7.90;;;;;;;2.08;94.56;101064.66;1699559;83;21473;-82
2022/11/06 00:41:29;;;;;;;12.13;7.80;;;;;;;2.11;94.69;101063.81;1699362;83;21523;-82
2022/11/06 00:44:00;;;;;;;10.30;7.70;;;;;;;2.09;94.41;101062.50;1699729;83;21531;-82
2022/11/06 00:46:27;;;;;;;10.95;7.90;;;;;;;2.03;94.03;101062.45;1699772;83;21091;-81
2022/11/06 00:48:55;;;;;;;14.03;8.73;;;;;;;2.00;93.94;101058.12;1699232;83;21038;-85
2022/11/06 00:51:27;;;;;;;12.07;8.67;;;;;;;1.95;94.09;101063.67;1699366;83;21340;-85
2022/11/06 00:54:01;;;;;;;12.77;8.17;;;;;;;1.96;94.47;101066.69;1698105;83;20994;-82
2022/11/06 00:56:28;;;;;;;10.27;7.97;;;;;;;1.95;94.34;101057.20;1699381;83;21282;-83
2022/11/06 00:59:01;;;;;;;10.93;7.93;;;;;;;1.97;94.43;101065.84;1699341;83;21273;-85
2022/11/06 01:01:38;;;;;;;11.73;7.93;;;;;;;1.97;94.32;101064.98;1699228;83;21061;-82
2022/11/06 01:04:13;;;;;;;11.57;7.43;;;;;;;1.94;94.41;101065.83;1699637;83;21014;-82
2022/11/06 01:06:43;;;;;;;17.33;9.43;;;;;;;1.94;94.27;101064.53;1699360;83;20973;-82
2022/11/06 01:09:14;;;;;;;12.77;8.10;;;;;;;1.93;94.37;101063.21;1699662;83;21449;-82
2022/11/06 01:11:46;;;;;;;12.70;8.50;;;;;;;1.90;94.10;101066.63;1699282;83;21570;-83
2022/11/06 01:14:15;;;;;;;10.47;7.60;;;;;;;1.86;94.09;101059.72;1699615;83;21014;-82
2022/11/06 01:16:43;;;;;;;34.97;19.73;;;;;;;1.88;94.32;101061.01;1699255;83;21022;-82
2022/11/06 01:19:13;;;;;;;17.80;10.07;;;;;;;1.89;94.71;101063.63;1699697;83;21519;-82
2022/11/06 01:21:42;;;;;;;;;;;;;;;1.94;94.84;101058.47;1701956;83;21038;-82
2022/11/06 01:24:19;;;;;;;14.50;9.47;;;;;;;1.95;94.60;101053.33;1690637;83;21130;-85
2022/11/06 01:26:46;;;;;;;14.67;9.60;;;;;;;1.85;94.21;101061.84;1695624;83;20950;-82
2022/11/06 01:29:16;;;;;;;14.30;8.13;;;;;;;1.85;94.57;101051.94;1699529;83;21022;-82
2022/11/06 01:31:43;;;;;;;12.73;8.40;;;;;;;1.85;94.49;101059.69;1699712;83;21014;-83
2022/11/06 01:34:12;;;;;;;9.83;7.23;;;;;;;1.82;94.17;101057.08;1699348;83;21504;-83
2022/11/06 01:36:39;;;;;;;13.23;7.77;;;;;;;1.76;94.07;101054.88;1699429;83;21122;-82
2022/11/06 01:39:09;;;;;;;12.47;7.60;;;;;;;1.75;94.26;101053.59;1699330;83;21022;-82
2022/11/06 01:41:41;;;;;;;12.00;8.08;;;;;;;1.75;94.15;101061.34;1699801;83;21014;-82
2022/11/06 01:44:36;;;;;;;14.13;8.50;;;;;;;1.70;94.20;101053.97;1699443;83;21022;-82
2022/11/06 01:47:06;;;;;;;12.17;8.17;;;;;;;1.72;94.45;101058.30;1699490;83;21018;-82
2022/11/06 01:49:37;;;;;;;;;;;;;;;1.78;95.31;101052.32;1699024;83;21176;-82
2022/11/06 01:52:10;;;;;;;12.03;8.35;;;;;;;1.79;95.07;101056.19;1698301;83;20197;-82
2022/11/06 01:54:40;;;;;;;15.37;9.17;;;;;;;1.83;95.18;101054.52;1698100;84;21023;-82
2022/11/06 01:57:10;;;;;;;15.78;8.98;;;;;;;1.78;94.98;101049.30;1698184;83;21018;-82
2022/11/06 01:59:42;;;;;;;17.90;9.83;;;;;;;1.75;94.83;101044.11;1698158;84;21051;-82
2022/11/06 02:02:09;;;;;;;16.60;9.17;;;;;;;1.82;95.28;101053.20;1698378;83;21887;-82
2022/11/06 02:04:41;;;;;;;16.33;9.37;;;;;;;1.78;94.75;101057.48;1698054;83;20946;-82
2022/11/06 02:07:09;;;;;;;15.07;10.57;;;;;;;1.78;95.18;101053.61;1698281;83;20998;-82
2022/11/06 02:09:37;;;;;;;17.17;9.60;;;;;;;1.82;95.42;101058.38;1698106;84;21025;-82
2022/11/06 02:12:17;;;;;;;13.90;9.23;;;;;;;1.83;95.15;101058.41;1698280;83;21025;-82
2022/11/06 02:15:14;;;;;;;12.93;9.53;;;;;;;1.79;94.94;101053.61;1698371;83;27833;-83
2022/11/06 02:18:01;;;;;;;13.90;9.00;;;;;;;1.78;95.06;101053.17;1696330;84;21026;-82
2022/11/06 02:20:42;;;;;;;15.97;9.43;;;;;;;1.74;94.84;101047.52;1687420;84;21026;-84
2022/11/06 02:23:23;;;;;;;22.00;9.80;;;;;;;1.71;94.99;101042.77;1691230;83;21015;-82
2022/11/06 02:26:07;;;;;;;14.87;9.77;;;;;;;1.74;95.38;101042.35;1694492;83;22352;-82
2022/11/06 02:28:40;;;;;;;14.73;9.60;;;;;;;1.78;95.72;101047.15;1696165;83;21924;-81
2022/11/06 02:31:14;;;;;;;12.07;8.90;;;;;;;1.78;95.38;101045.42;1698433;83;20995;-81
2022/11/06 02:33:55;;;;;;;14.57;9.10;;;;;;;1.74;94.94;101050.11;1698430;84;21010;-81
2022/11/06 02:36:28;;;;;;;13.03;8.87;;;;;;;1.71;94.82;101050.52;1707138;83;21030;-81
2022/11/06 02:38:59;;;;;;;13.67;9.07;;;;;;;1.69;95.02;101044.45;1698580;83;21463;-81
2022/11/06 02:41:34;;;;;;;13.53;8.90;;;;;;;1.66;94.71;101045.29;1698194;83;22138;-81
2022/11/06 02:44:04;;;;;;;13.20;9.03;;;;;;;1.62;94.74;101042.69;1698497;83;20975;-81
2022/11/06 02:46:42;;;;;;;12.85;8.95;;;;;;;1.62;95.06;101039.67;1698338;83;25106;-80
2022/11/06 02:49:13;;;;;;;12.13;8.50;;;;;;;1.64;95.27;101041.84;1698327;83;20971;-78
2022/11/06 02:51:50;;;;;;;15.73;9.37;;;;;;;1.67;95.11;101043.17;1697501;83;21002;-83
2022/11/06 02:54:21;;;;;;;13.13;8.70;;;;;;;1.64;95.00;101049.60;1698159;84;21086;-80
2022/11/06 02:56:51;;;;;;;11.67;8.10;;;;;;;1.61;94.74;101049.97;1698122;83;21029;-81
2022/11/06 02:59:29;;;;;;;14.25;8.30;;;;;;;1.52;94.63;101046.48;1698471;84;20999;-80
2022/11/06 03:02:00;;;;;;;13.10;8.77;;;;;;;1.47;94.67;101045.95;1698288;83;21002;-81
2022/11/06 03:04:39;;;;;;;12.60;8.37;;;;;;;1.45;94.94;101050.27;1698302;83;21065;-81
2022/11/06 03:07:20;;;;;;;14.70;9.90;;;;;;;1.44;95.02;101049.41;1698284;84;21185;-84
2022/11/06 03:09:49;;;;;;;17.27;9.00;;;;;;;1.44;95.42;101044.23;1698517;83;21007;-80
2022/11/06 03:12:33;;;;;;;16.10;9.30;;;;;;;1.43;95.37;101047.65;1698136;83;21082;-80
2022/11/06 03:15:20;;;;;;;13.73;9.43;;;;;;;1.41;95.52;101054.94;1698460;83;21539;-81
2022/11/06 03:17:52;;;;;;;21.33;10.13;;;;;;;1.46;96.10;101051.98;1698142;83;21006;-81
2022/11/06 03:20:31;;;;;;;13.97;10.33;;;;;;;1.45;95.77;101050.27;1698070;83;22003;-81
2022/11/06 03:23:09;;;;;;;14.77;9.83;;;;;;;1.42;95.51;101055.41;1692843;83;21015;-80
2022/11/06 03:25:53;;;;;;;15.70;9.40;;;;;;;1.43;95.96;101051.95;1693108;83;21034;-80
2022/11/06 03:28:28;;;;;;;13.97;9.53;;;;;;;1.46;96.12;101055.42;1698278;83;21024;-80
2022/11/06 03:31:03;;;;;;;15.67;10.13;;;;;;;1.51;96.39;101046.02;1698220;83;20998;-85
2022/11/06 03:33:53;;;;;;;16.83;10.00;;;;;;;1.55;96.55;101040.05;1698241;84;21130;-80
2022/11/06 03:36:25;;;;;;;20.50;10.48;;;;;;;1.64;96.82;101043.58;1698505;83;21085;-80
2022/11/06 03:38:57;;;;;;;15.57;9.80;;;;;;;1.70;96.76;101047.07;1701114;83;21507;-81
2022/11/06 03:41:47;;;;;;;17.13;9.87;;;;;;;1.71;96.49;101044.91;1698359;83;21017;-81
2022/11/06 03:44:18;;;;;;;15.23;10.13;;;;;;;1.76;96.97;101042.38;1714729;82;21058;-81
2022/11/06 03:47:00;;;;;;;14.17;9.27;;;;;;;1.85;97.18;101044.18;1702871;82;22019;-81
2022/11/06 03:49:32;;;;;;;15.47;9.70;;;;;;;1.88;96.72;101045.50;1694264;83;21464;-84
2022/11/06 03:52:07;;;;;;;16.37;9.67;;;;;;;1.85;96.23;101048.92;1698103;83;21016;-81
2022/11/06 03:54:48;;;;;;;15.27;9.20;;;;;;;1.79;95.74;101044.99;1696793;83;20990;-81
2022/11/06 03:57:27;;;;;;;13.00;9.03;;;;;;;1.83;96.16;101047.17;1689015;84;21174;-80
2022/11/06 03:59:58;;;;;;;14.57;8.87;;;;;;;1.82;95.84;101046.74;1697981;83;21301;-81
2022/11/06 04:02:29;;;;;;;16.87;9.33;;;;;;;1.80;95.86;101050.59;1698109;83;20982;-81
2022/11/06 04:05:02;;;;;;;12.13;8.70;;;;;;;1.80;96.23;101044.13;1698243;84;20975;-81
2022/11/06 04:07:36;;;;;;;14.60;9.63;;;;;;;1.86;96.30;101046.80;1698230;83;21045;-81
2022/11/06 04:15:53;;;;;;;14.47;9.63;;;;;;;1.97;96.84;101055.51;1687786;84;21049;-81
2022/11/06 04:18:20;;;;;;;15.53;9.73;;;;;;;1.95;96.51;101055.05;1698416;83;21018;-81
2022/11/06 04:21:27;;;;;;;14.00;9.50;;;;;;;1.96;96.80;101049.88;1698254;83;21085;-80
2022/11/06 04:27:17;;;;;;;15.20;9.83;;;;;;;2.04;96.89;101041.33;1698250;83;21139;-81
2022/11/06 04:30:09;;;;;;;15.00;8.47;;;;;;;2.07;97.08;101052.98;1590364;84;21135;-83
2022/11/06 04:33:01;;;;;;;16.07;9.20;;;;;;;2.11;97.15;101047.00;1698433;83;21547;-81
2022/11/06 04:35:52;;;;;;;13.33;9.67;;;;;;;2.14;97.20;101039.27;1698460;83;21013;-81
2022/11/06 04:38:33;;;;;;;15.48;8.80;;;;;;;2.17;97.01;101038.00;1697724;83;21496;-84
2022/11/06 04:41:11;;;;;;;13.30;8.77;;;;;;;2.16;96.89;101034.95;1698234;83;21563;-81
2022/11/06 04:43:47;;;;;;;13.40;8.90;;;;;;;2.15;96.92;101033.23;1698203;83;21592;-81
2022/11/06 04:46:20;;;;;;;11.57;8.83;;;;;;;2.19;97.12;101033.67;1693522;83;20897;-84
2022/11/06 04:48:48;;;;;;;17.57;9.33;;;;;;;2.22;97.11;101039.77;1691490;83;20998;-81
2022/11/06 04:51:20;;;;;;;13.83;8.60;;;;;;;2.17;96.50;101034.98;1698056;83;21043;-81
2022/11/06 04:53:49;;;;;;;13.23;8.47;;;;;;;2.18;96.71;101039.72;1698252;83;21109;-81
2022/11/06 04:56:24;;;;;;;13.33;8.13;;;;;;;2.17;96.57;101032.39;1698056;83;21046;-81
2022/11/06 04:58:50;;;;;;;12.57;8.83;;;;;;;2.18;96.46;101041.01;1698223;83;21476;-81
2022/11/06 05:01:17;;;;;;;13.43;8.70;;;;;;;2.15;96.28;101034.09;1698095;83;21030;-80
2022/11/06 05:03:44;;;;;;;14.63;9.03;;;;;;;2.14;96.27;101035.39;1698220;84;20983;-80
2022/11/06 05:06:12;;;;;;;14.97;9.20;;;;;;;2.12;96.29;101033.21;1698140;83;21022;-83
2022/11/06 05:08:39;;;;;;;12.47;8.63;;;;;;;2.11;96.54;101031.05;1698382;83;21011;-80
2022/11/06 05:11:07;;;;;;;14.23;9.50;;;;;;;2.14;96.60;101028.92;1698069;83;21034;-81
2022/11/06 05:13:34;;;;;;;13.10;8.97;;;;;;;2.15;96.77;101031.94;1698233;83;21017;-80
2022/11/06 05:16:01;;;;;;;17.50;10.20;;;;;;;2.19;96.94;101029.39;1698141;83;21501;-80
2022/11/06 05:18:28;;;;;;;15.90;9.90;;;;;;;2.22;96.96;101025.97;1698086;83;21141;-83
2022/11/06 05:23:46;;;;;;;14.33;9.63;;;;;;;2.30;97.26;101024.30;1698214;84;21089;-83
2022/11/06 05:26:13;;;;;;;15.47;9.93;;;;;;;2.36;97.33;101026.92;1698119;84;21003;-83
2022/11/06 05:28:40;;;;;;;14.57;9.17;;;;;;;2.40;97.31;101027.80;1698185;83;21082;-82
2022/11/06 05:31:07;;;;;;;16.20;10.27;;;;;;;2.42;97.26;101020.92;1698318;83;21114;-82
2022/11/06 05:33:34;;;;;;;14.40;9.67;;;;;;;2.40;96.95;101018.31;1698077;83;21077;-81
2022/11/06 05:36:04;;;;;;;15.93;10.20;;;;;;;2.42;97.18;101014.45;1698495;83;20991;-81
2022/11/06 05:38:32;;;;;;;14.47;8.77;;;;;;;2.45;97.06;101016.63;1698064;83;21022;-85
2022/11/06 05:40:59;;;;;;;15.80;9.87;;;;;;;2.42;96.68;101021.78;1698202;83;21516;-83
2022/11/06 05:43:26;;;;;;;14.47;9.60;;;;;;;2.37;96.52;101027.34;1698046;84;21122;-83
2022/11/06 05:45:53;;;;;;;15.83;9.77;;;;;;;2.40;96.73;101023.92;1695931;83;20999;-83
2022/11/06 05:48:20;;;;;;;13.20;9.10;;;;;;;2.41;96.79;101024.34;1688256;83;21488;-83
2022/11/06 05:50:47;;;;;;;15.07;9.60;;;;;;;2.40;96.78;101022.63;1698848;83;21026;-83
2022/11/06 05:53:18;;;;;;;15.48;9.65;;;;;;;2.41;96.96;101020.06;1699610;83;21009;-82
2022/11/06 05:55:46;;;;;;;16.77;9.77;;;;;;;2.50;97.51;101023.56;1699379;83;21934;-83
2022/11/06 05:58:14;;;;;;;14.67;9.40;;;;;;;2.54;97.56;101026.16;1699110;83;21037;-82
2022/11/06 06:00:41;;;;;;;13.53;9.47;;;;;;;2.59;97.42;101024.90;1699433;83;21468;-86
2022/11/06 06:03:09;;;;;;;16.00;9.97;;;;;;;2.55;97.11;101029.20;1699452;83;21550;-82
2022/11/06 06:05:36;;;;;;;16.47;9.03;;;;;;;2.54;96.89;101033.92;1699548;83;21458;-82
2022/11/06 06:08:04;;;;;;;15.00;9.53;;;;;;;2.55;97.02;101030.89;1699490;83;21125;-83
2022/11/06 06:10:32;;;;;;;20.23;11.83;;;;;;;2.58;97.20;101027.06;1699426;83;21009;-83
2022/11/06 06:12:59;;;;;;;31.03;18.80;;;;;;;2.62;97.46;101030.09;1699820;83;21478;-82
2022/11/06 06:15:26;;;;;;;39.63;20.70;;;;;;;2.63;97.32;101024.05;1699452;83;21512;-83
2022/11/06 06:17:53;;;;;;;49.87;30.07;;;;;;;2.66;97.24;101029.23;1699835;83;21550;-84
2022/11/06 06:20:20;;;;;;;30.63;20.40;;;;;;;2.65;96.82;101032.26;1699512;83;21099;-82
2022/11/06 06:22:55;;;;;;;32.40;21.57;;;;;;;2.63;96.98;101034.39;1699803;83;20966;-83
2022/11/06 06:25:23;;;;;;;21.50;14.83;;;;;;;2.64;96.99;101041.33;1699442;83;21046;-82
2022/11/06 06:27:51;;;;;;;16.57;10.80;;;;;;;2.62;96.82;101043.03;1699736;83;21022;-83
2022/11/06 06:30:18;;;;;;;32.23;20.73;;;;;;;2.60;96.67;101038.27;1699432;83;21587;-84
2022/11/06 06:32:45;;;;;;;60.03;39.57;;;;;;;2.64;97.13;101038.30;1699805;83;21088;-83
2022/11/06 06:35:12;;;;;;;77.13;50.20;;;;;;;2.67;97.12;101040.91;1699462;83;21071;-84
2022/11/06 06:37:39;;;;;;;46.70;33.07;;;;;;;2.66;96.99;101042.17;1699847;83;20990;-83
2022/11/06 06:40:07;;;;;;;49.73;35.37;;;;;;;2.72;97.43;101047.84;1699518;83;21069;-84
2022/11/06 06:42:34;;;;;;;45.77;32.97;;;;;;;2.75;97.42;101048.72;1699749;83;21025;-84
2022/11/06 06:45:01;;;;;;;22.50;16.63;;;;;;;2.74;96.91;101048.27;1699855;83;21066;-84
2022/11/06 06:47:29;;;;;;;28.63;21.93;;;;;;;2.75;97.00;101055.19;1690541;83;21026;-83
2022/11/06 06:49:56;;;;;;;27.80;21.27;;;;;;;2.76;97.13;101058.64;1699652;83;21014;-83
2022/11/06 06:52:23;;;;;;;19.57;14.03;;;;;;;2.80;97.35;101056.09;1699438;83;21037;-83
2022/11/06 06:54:50;;;;;;;14.17;10.37;;;;;;;2.84;97.49;101053.94;1699727;83;21569;-83
2022/11/06 06:57:17;;;;;;;27.40;19.23;;;;;;;2.86;97.22;101053.95;1699545;83;21121;-84
2022/11/06 06:59:44;;;;;;;37.13;24.63;;;;;;;2.86;97.19;101050.94;1699595;83;21034;-83
2022/11/06 07:02:12;;;;;;;22.70;16.33;;;;;;;2.84;96.92;101050.05;1699586;83;21034;-83
2022/11/06 07:04:39;;;;;;;24.67;16.53;;;;;;;2.85;97.10;101051.77;1699406;83;21424;-84
2022/11/06 07:07:06;;;;;;;25.50;15.43;;;;;;;2.85;97.01;101045.30;1699722;83;21134;-82
2022/11/06 07:09:33;;;;;;;19.10;14.80;;;;;;;2.94;97.41;101053.97;1699700;83;21770;-82
2022/11/06 07:12:00;;;;;;;19.33;13.17;;;;;;;2.98;97.52;101053.14;1699355;83;21010;-76
2022/11/06 07:14:27;;;;;;;20.87;14.07;;;;;;;3.03;97.40;101054.03;1699779;83;21468;-84
2022/11/06 07:16:54;;;;;;;23.87;15.10;;;;;;;3.05;97.50;101048.00;1699647;83;21034;-80
2022/11/06 07:19:21;;;;;;;19.13;12.83;;;;;;;3.08;97.40;101049.74;1699442;83;21013;-77
2022/11/06 07:21:52;;;;;;;20.30;13.73;;;;;;;3.12;97.45;101054.06;1699757;83;21577;-80
2022/11/06 07:24:19;;;;;;;17.10;12.40;;;;;;;3.15;97.26;101054.50;1699378;83;21014;-81
2022/11/06 07:26:46;;;;;;;21.97;12.17;;;;;;;3.10;96.99;101046.70;1699650;83;21042;-81
2022/11/06 07:29:13;;;;;;;16.50;10.83;;;;;;;3.13;97.16;101049.30;1699557;83;21034;-82
2022/11/06 07:31:41;;;;;;;18.17;11.27;;;;;;;3.16;97.09;101054.52;1699718;83;21527;-85
2022/11/06 07:34:09;;;;;;;25.40;15.33;;;;;;;3.19;97.53;101054.53;1699519;83;21961;-82
2022/11/06 07:36:36;;;;;;;17.57;11.70;;;;;;;3.28;97.79;101054.99;1699632;83;21014;-81
2022/11/06 07:39:03;;;;;;;22.20;14.90;;;;;;;3.30;97.53;101053.28;1699390;83;21014;-82
2022/11/06 07:41:30;;;;;;;26.83;13.80;;;;;;;3.33;97.74;101051.55;1699458;83;21026;-83
2022/11/06 07:43:57;;;;;;;29.47;15.90;;;;;;;3.39;97.78;101053.30;1699377;83;21081;-79
2022/11/06 07:46:24;;;;;;;27.33;15.87;;;;;;;3.45;98.09;101053.30;1695440;83;21101;-83
2022/11/06 07:48:51;;;;;;;24.57;14.17;;;;;;;3.52;98.30;101054.17;1694974;83;21040;-81
2022/11/06 07:51:19;;;;;;;16.03;11.70;;;;;;;3.62;98.59;101057.23;1699428;83;21041;-81
2022/11/06 07:53:46;;;;;;;17.07;10.53;;;;;;;3.68;98.43;101057.23;1699449;83;21014;-80
2022/11/06 07:56:13;;;;;;;16.63;9.63;;;;;;;3.73;98.21;101057.25;1699502;83;21013;-78
2022/11/06 07:58:40;;;;;;;16.33;10.87;;;;;;;3.77;98.19;101057.70;1699659;83;21936;-81
2022/11/06 08:01:12;;;;;;;15.00;10.07;;;;;;;3.84;98.42;101049.48;1699345;83;21010;-79
2022/11/06 08:03:39;;;;;;;18.43;10.43;;;;;;;3.94;98.58;101057.72;1699636;83;21500;-79
2022/11/06 08:06:07;;;;;;;16.43;10.57;;;;;;;3.99;98.45;101055.97;1700731;82;21018;-84
2022/11/06 08:08:35;;;;;;;16.33;9.30;;;;;;;4.11;98.87;101053.84;1719403;82;21101;-80
2022/11/06 08:11:06;;;;;;;18.07;9.77;;;;;;;4.17;98.51;101046.05;1718562;82;21540;-80
2022/11/06 08:13:34;;;;;;;16.80;10.33;;;;;;;4.17;98.12;101050.79;1703171;83;21081;-78
2022/11/06 08:16:08;;;;;;;13.77;9.73;;;;;;;4.29;98.68;101052.95;1704792;82;21034;-80
2022/11/06 08:18:38;;;;;;;14.47;9.03;;;;;;;4.36;98.51;101052.09;1703921;82;21002;-83
2022/11/06 08:21:08;;;;;;;19.53;9.60;;;;;;;4.44;98.35;101049.05;1704864;82;21369;-83
2022/11/06 08:23:50;;;;;;;14.67;9.17;;;;;;;4.53;98.03;101049.47;1721026;82;21079;-83
2022/11/06 08:26:26;;;;;;;12.87;9.43;;;;;;;4.59;98.12;101046.41;1717955;82;21153;-80
2022/11/06 08:28:57;;;;;;;14.23;8.33;;;;;;;4.71;98.09;101046.81;1714694;82;21074;-82
2022/11/06 08:31:25;;;;;;;13.83;8.17;;;;;;;4.86;98.23;101046.78;1704721;82;21041;-78
2022/11/06 08:33:52;;;;;;;12.67;8.60;;;;;;;5.02;98.30;101044.14;1713906;82;21587;-80
2022/11/06 08:36:19;;;;;;;14.60;9.03;;;;;;;5.15;97.91;101040.59;1704884;82;21113;-80
2022/11/06 08:38:49;;;;;;;14.20;8.40;;;;;;;5.28;98.04;101043.57;1721189;82;21030;-79
2022/11/06 08:41:18;;;;;;;14.07;8.73;;;;;;;5.47;98.13;101044.78;1706198;82;21085;-80
2022/11/06 08:43:47;;;;;;;17.13;8.43;;;;;;;5.67;98.16;101045.95;1722710;82;22008;-79
2022/11/06 08:46:14;;;;;;;14.33;7.87;;;;;;;5.88;98.11;101044.95;1680977;83;21027;-79
2022/11/06 08:48:41;;;;;;;13.33;8.37;;;;;;;6.05;97.69;101049.61;1705051;82;21927;-80
2022/11/06 08:51:08;;;;;;;14.43;8.17;;;;;;;6.24;97.57;101046.42;1721594;82;21012;-80
2022/11/06 08:53:35;;;;;;;18.27;10.37;;;;;;;6.41;97.23;101039.31;1704771;82;21030;-79
2022/11/06 08:56:04;;;;;;;15.63;8.37;;;;;;;6.60;97.32;101037.84;1704524;82;21022;-78
2022/11/06 08:58:31;;;;;;;12.43;8.13;;;;;;;6.77;97.07;101035.05;1704503;82;21265;-80
2022/11/06 09:00:58;;;;;;;12.83;7.93;;;;;;;6.94;96.55;101040.92;1720479;82;21137;-88
2022/11/06 09:03:25;;;;;;;15.83;10.33;;;;;;;7.07;96.16;101037.73;1719016;82;21504;-84
2022/11/06 09:05:52;;;;;;;17.90;10.40;;;;;;;7.28;96.73;101043.09;1720095;82;21039;-88
2022/11/06 09:08:19;;;;;;;15.90;9.47;;;;;;;7.56;96.93;101034.45;1717977;82;21050;-82
2022/11/06 09:10:46;;;;;;;13.27;7.73;;;;;;;7.81;96.69;101029.72;1704609;83;21033;-84
2022/11/06 09:13:13;;;;;;;10.97;7.97;;;;;;;7.99;96.34;101026.83;1704453;82;21991;-80
2022/11/06 09:15:40;;;;;;;12.33;7.60;;;;;;;8.19;95.79;101026.48;1708526;82;21065;-79
2022/11/06 09:18:09;;;;;;;10.47;7.37;;;;;;;8.36;95.60;101024.88;1713002;82;21416;-78
2022/11/06 09:20:36;;;;;;;13.27;7.50;;;;;;;8.56;95.55;101023.23;1727639;82;21022;-78
2022/11/06 09:23:07;;;;;;;12.47;7.00;;;;;;;8.75;94.83;101022.45;1728352;82;21035;-80
2022/11/06 09:25:35;;;;;;;10.63;7.00;;;;;;;8.97;94.80;101027.26;1736945;82;21280;-79
2022/11/06 09:28:03;;;;;;;10.03;6.70;;;;;;;9.12;93.97;101022.58;1714980;82;21064;-79
2022/11/06 09:30:31;;;;;;;14.27;7.70;;;;;;;9.27;93.32;101025.76;1736716;82;21067;-81
2022/11/06 09:33:01;;;;;;;14.07;7.07;;;;;;;9.40;93.15;101019.82;1729750;82;21552;-80
2022/11/06 09:35:32;;;;;;;13.35;6.95;;;;;;;9.67;93.28;101023.13;1735367;82;21086;-80
2022/11/06 09:38:06;;;;;;;12.78;7.05;;;;;;;9.88;92.40;101019.11;1730589;82;21302;-79
2022/11/06 09:40:53;;;;;;;9.95;6.37;;;;;;;10.03;91.95;101022.68;1735056;82;21591;-86
2022/11/06 09:44:04;;;;;;;11.97;6.30;;;;;;;10.20;91.59;101020.09;1718937;82;21567;-79
2022/11/06 09:46:44;;;;;;;8.60;5.62;;;;;;;10.42;91.32;101021.28;1711034;82;21011;-80
2022/11/06 09:49:44;;;;;;;10.60;6.45;;;;;;;10.72;90.96;101018.70;1694312;84;21577;-84
2022/11/06 09:52:29;;;;;;;10.93;6.67;;;;;;;10.93;90.39;101018.57;1668786;85;22029;-78
2022/11/06 09:55:04;;;;;;;13.60;7.28;;;;;;;11.16;90.07;101018.75;1706279;82;21543;-78
2022/11/06 09:57:48;;;;;;;11.03;6.80;;;;;;;11.43;89.61;101012.73;1709459;82;21003;-83
2022/11/06 10:00:16;;;;;;;11.25;6.10;;;;;;;11.71;89.49;101003.53;1701505;83;21042;-78
2022/11/06 10:03:04;;;;;;;10.85;6.17;;;;;;;11.90;88.23;101006.00;1701673;83;21078;-84
2022/11/06 10:05:35;;;;;;;12.53;6.70;;;;;;;12.05;88.11;101005.50;1701605;83;21342;-79
2022/11/06 10:08:07;;;;;;;10.43;6.03;;;;;;;12.30;87.72;101002.47;1701700;83;21592;-79
2022/11/06 10:10:59;;;;;;;8.15;5.22;;;;;;;12.45;86.53;100999.33;1700664;83;21050;-83
2022/11/06 10:13:50;;;;;;;12.30;6.22;;;;;;;12.59;86.58;100989.17;1701652;83;21034;-77
2022/11/06 10:16:44;;;;;;;10.65;5.62;;;;;;;12.75;85.51;100989.48;1701269;83;21280;-78
2022/11/06 10:19:31;;;;;;;11.03;5.42;;;;;;;12.97;85.56;100984.72;1701432;83;21128;-76
2022/11/06 10:22:15;;;;;;;12.33;5.03;;;;;;;13.19;85.02;100980.38;1701451;83;20954;-78
2022/11/06 10:24:54;;;;;;;10.90;4.55;;;;;;;13.38;84.79;100978.77;1701708;83;21558;-79
2022/11/06 10:27:40;;;;;;;11.28;6.85;;;;;;;13.70;84.58;100967.86;1701676;83;21010;-79
2022/11/06 10:30:17;;;;;;;10.70;5.08;;;;;;;13.75;82.79;100964.58;1701804;83;21563;-76
2022/11/06 10:33:07;;;;;;;8.88;4.75;;;;;;;13.88;82.48;100963.13;1701474;83;21123;-77
2022/11/06 10:35:40;;;;;;;13.55;6.40;;;;;;;13.93;81.91;100959.84;1700941;83;23732;-75
2022/11/06 10:38:20;;;;;;;10.03;5.00;;;;;;;14.03;81.64;100955.05;1701487;83;21047;-78
2022/11/06 10:40:50;;;;;;;7.30;4.30;;;;;;;14.28;81.89;100952.22;1701633;83;21012;-79
2022/11/06 10:43:42;;;;;;;;;;;;;;;14.45;81.23;100958.06;1704327;83;21038;-77
2022/11/06 10:46:34;;;;;;;7.75;3.58;;;;;;;14.71;80.70;100947.69;1706887;82;21331;-76
2022/11/06 10:49:06;;;;;;;9.20;5.05;;;;;;;14.93;80.53;100943.13;1694439;83;20899;-79
2022/11/06 10:52:04;;;;;;;11.75;4.90;;;;;;;15.09;79.60;100941.11;1667449;85;21019;-83
2022/11/06 10:54:57;;;;;;;9.83;6.05;;;;;;;15.18;79.20;100925.66;1699503;84;21012;-80
2022/11/06 10:57:50;;;;;;;10.50;4.55;;;;;;;15.29;78.87;100913.27;1669400;85;21067;-79
2022/11/06 11:00:17;;;;;;;14.43;8.68;;;;;;;15.51;78.44;100906.47;1643486;86;21223;-80
2022/11/06 11:02:56;;;;;;;12.03;6.50;;;;;;;15.64;77.33;100902.77;1654686;85;20927;-75
2022/11/06 11:05:25;;;;;;;9.05;5.80;;;;;;;15.95;77.04;100898.13;1643379;86;21059;-80
2022/11/06 11:07:53;;;;;;;9.10;5.15;;;;;;;16.37;75.88;100907.86;1654833;85;21124;-79
2022/11/06 11:10:26;;;;;;;13.13;5.58;;;;;;;16.68;75.02;100893.38;1645359;86;21513;-82
2022/11/06 11:12:57;;;;;;;10.30;4.12;;;;;;;16.98;74.06;100891.79;1653686;85;21212;-78
2022/11/06 11:15:45;;;;;;;7.45;4.05;;;;;;;17.23;73.82;100887.28;1655285;84;21563;-81
2022/11/06 11:18:20;;;;;;;8.83;3.33;;;;;;;17.50;73.27;100884.37;1658251;85;21112;-77
2022/11/06 11:20:52;;;;;;;5.25;2.50;;;;;;;17.59;71.70;100879.00;1654664;85;21714;-79
2022/11/06 11:23:24;;;;;;;8.43;2.60;;;;;;;17.82;71.61;100879.87;1647504;86;21578;-74
2022/11/06 11:25:56;;;;;;;7.17;3.40;;;;;;;18.06;70.86;100866.91;1646336;86;21129;-77
2022/11/06 11:28:31;;;;;;;8.30;3.33;;;;;;;18.05;69.64;100858.58;1659379;85;21613;-76
2022/11/06 11:31:15;;;;;;;9.93;2.67;;;;;;;18.31;69.89;100858.77;1643697;86;21074;-77
2022/11/06 11:33:55;;;;;;;10.18;4.90;;;;;;;18.50;68.98;100843.87;1654859;85;21050;-75
2022/11/06 11:36:23;;;;;;;;;;;;;;;18.37;68.35;100842.45;1667030;84;21053;-77
2022/11/06 11:38:50;;;;;;;4.55;2.08;;;;;;;18.21;67.08;100852.34;1670051;85;21156;-77
2022/11/06 11:41:24;;;;;;;3.30;1.90;;;;;;;18.05;67.98;100848.45;1673890;84;21047;-80
2022/11/06 11:44:08;;;;;;;5.35;2.12;;;;;;;17.78;67.20;100846.51;1669817;85;21059;-77
2022/11/06 11:46:48;;;;;;;5.00;2.00;;;;;;;17.69;67.35;100842.21;1688744;84;21079;-79
2022/11/06 11:49:33;;;;;;;6.50;2.52;;;;;;;17.78;67.67;100841.20;1697211;83;20987;-75
2022/11/06 11:52:07;;;;;;;6.70;2.47;;;;;;;17.89;67.75;100839.23;1672361;85;21082;-76
2022/11/06 11:54:35;;;;;;;8.40;2.15;;;;;;;17.98;67.07;100829.86;1675392;84;21042;-76
2022/11/06 11:57:09;;;;;;;6.47;2.42;;;;;;;17.86;65.98;100831.47;1675176;84;21020;-76
2022/11/06 11:59:42;;;;;;;5.35;2.52;;;;;;;17.85;66.01;100828.45;1726842;82;21481;-77
2022/11/06 12:02:32;;;;;;;4.62;2.17;;;;;;;17.82;65.77;100828.64;1717374;82;21019;-77